ZH886 EGPB-EGVN

Flight info

Callsign ZH886
Flight time N/A
Altitude 4000
Route DCT
Aircraft C30J/M-SDFRY/H

Departure

Time 2026-04-23 08:58
Airport Sumburgh Airport (EGPB)

Arrival

Time N/A
Airport RAF Brize Norton (EGVN)
Time Latitude Longitude Altitude Speed Heading
2026-04-23 08:48 59.87864 -1.29263 45 ft 0 kts 143°
2026-04-23 08:56 59.87832 -1.29216 45 ft 23 kts 143°
2026-04-23 08:56 59.87646 -1.28974 41 ft 31 kts 161°
2026-04-23 08:57 59.87475 -1.28783 44 ft 25 kts 154°
2026-04-23 08:57 59.87361 -1.28814 45 ft 11 kts 274°
2026-04-23 08:57 59.87378 -1.28857 42 ft 0 kts 325°
2026-04-23 08:57 59.87583 -1.29145 43 ft 79 kts 323°
2026-04-23 08:58 59.88219 -1.30082 101 ft 146 kts 323°
2026-04-23 08:58 59.89143 -1.31469 578 ft 177 kts 322°
2026-04-23 08:58 59.90156 -1.33048 1395 ft 194 kts 321°
2026-04-23 08:58 59.91338 -1.34515 2233 ft 208 kts 344°
2026-04-23 08:59 59.92825 -1.34420 2837 ft 235 kts 17°
2026-04-23 08:59 59.94297 -1.32472 2872 ft 277 kts 47°
2026-04-23 08:59 59.95268 -1.28946 2901 ft 306 kts 73°
2026-04-23 08:59 59.95422 -1.24587 2919 ft 324 kts 98°
2026-04-23 09:00 59.94673 -1.20384 2927 ft 322 kts 122°
2026-04-23 09:00 59.93168 -1.17161 2923 ft 315 kts 145°
2026-04-23 09:00 59.91188 -1.15484 2909 ft 310 kts 171°
2026-04-23 09:00 59.89063 -1.15675 2906 ft 306 kts 196°
2026-04-23 09:01 59.87195 -1.17569 2892 ft 302 kts 220°
2026-04-23 09:01 59.85905 -1.20846 2717 ft 303 kts 243°
2026-04-23 09:01 59.84796 -1.24440 2353 ft 310 kts 228°
2026-04-23 09:01 59.83044 -1.26887 1971 ft 315 kts 205°
2026-04-23 09:02 59.80996 -1.28477 1618 ft 316 kts 199°
2026-04-23 09:02 59.78905 -1.29819 1275 ft 316 kts 197°
2026-04-23 09:02 59.76776 -1.30934 951 ft 315 kts 193°
2026-04-23 09:02 59.74635 -1.31849 568 ft 315 kts 191°
2026-04-23 09:03 59.72495 -1.32645 388 ft 309 kts 190°
2026-04-23 09:03 59.70393 -1.33349 386 ft 302 kts 189°
2026-04-23 09:03 59.68341 -1.33973 386 ft 298 kts 188°
2026-04-23 09:03 59.66289 -1.34569 384 ft 295 kts 188°
2026-04-23 09:04 59.64263 -1.35146 385 ft 294 kts 188°
2026-04-23 09:04 59.62240 -1.35708 386 ft 293 kts 188°
2026-04-23 09:04 59.60222 -1.36264 388 ft 293 kts 188°
2026-04-23 09:04 59.58206 -1.36817 388 ft 292 kts 188°
2026-04-23 09:05 59.56195 -1.37370 390 ft 292 kts 188°
2026-04-23 09:05 59.54200 -1.37913 392 ft 292 kts 188°
2026-04-23 09:05 59.52191 -1.38470 393 ft 292 kts 188°
2026-04-23 09:05 59.50152 -1.39024 394 ft 292 kts 188°
2026-04-23 09:06 59.48164 -1.39570 394 ft 292 kts 188°
2026-04-23 09:06 59.46152 -1.40116 399 ft 292 kts 188°
2026-04-23 09:06 59.44136 -1.40671 394 ft 292 kts 188°
2026-04-23 09:06 59.42124 -1.41217 394 ft 292 kts 188°
2026-04-23 09:07 59.40109 -1.41766 396 ft 292 kts 188°
2026-04-23 09:07 59.38092 -1.42311 394 ft 292 kts 187°
2026-04-23 09:07 59.36106 -1.42851 393 ft 292 kts 188°
2026-04-23 09:07 59.34095 -1.43399 396 ft 292 kts 187°
2026-04-23 09:08 59.32086 -1.43943 393 ft 292 kts 188°
2026-04-23 09:08 59.30071 -1.44489 393 ft 292 kts 188°
2026-04-23 09:08 59.28062 -1.45035 397 ft 292 kts 188°
2026-04-23 09:08 59.26046 -1.45579 393 ft 292 kts 187°
2026-04-23 09:09 59.24037 -1.46121 393 ft 291 kts 188°
2026-04-23 09:09 59.22025 -1.46661 399 ft 291 kts 187°
2026-04-23 09:09 59.20010 -1.47207 398 ft 292 kts 187°
2026-04-23 09:09 59.17998 -1.47744 397 ft 292 kts 187°
2026-04-23 09:10 59.15989 -1.48288 397 ft 291 kts 187°
2026-04-23 09:10 59.11994 -1.49398 398 ft 291 kts 188°
2026-04-23 09:10 59.09985 -1.49983 395 ft 291 kts 188°
2026-04-23 09:11 59.07982 -1.50569 395 ft 291 kts 188°
2026-04-23 09:11 59.05975 -1.51164 394 ft 291 kts 188°
2026-04-23 09:11 59.03974 -1.51770 393 ft 291 kts 188°
2026-04-23 09:11 59.01973 -1.52385 394 ft 291 kts 189°
2026-04-23 09:12 58.99971 -1.53012 394 ft 291 kts 189°
2026-04-23 09:12 58.97996 -1.53636 401 ft 291 kts 189°
2026-04-23 09:12 58.95977 -1.54284 395 ft 291 kts 189°
2026-04-23 09:12 58.93986 -1.54938 398 ft 290 kts 189°
2026-04-23 09:13 58.92018 -1.55591 394 ft 291 kts 189°
2026-04-23 09:13 58.90023 -1.56257 394 ft 290 kts 189°
2026-04-23 09:13 58.88033 -1.56935 394 ft 290 kts 189°
2026-04-23 09:13 58.86044 -1.57626 395 ft 290 kts 190°
2026-04-23 09:14 58.84052 -1.58328 398 ft 290 kts 190°
2026-04-23 09:14 58.82064 -1.59036 394 ft 290 kts 190°
2026-04-23 09:14 58.80085 -1.59750 401 ft 290 kts 190°
2026-04-23 09:14 58.78104 -1.60480 395 ft 290 kts 190°
2026-04-23 09:15 58.76120 -1.61217 394 ft 289 kts 191°
2026-04-23 09:15 58.74175 -1.61950 398 ft 289 kts 191°
2026-04-23 09:15 58.72200 -1.62706 394 ft 289 kts 191°
2026-04-23 09:15 58.70223 -1.63475 395 ft 289 kts 191°
2026-04-23 09:16 58.68246 -1.64246 399 ft 289 kts 191°
2026-04-23 09:16 58.66281 -1.65015 399 ft 289 kts 191°
2026-04-23 09:16 58.64303 -1.65806 396 ft 289 kts 191°
2026-04-23 09:16 58.62331 -1.66601 394 ft 289 kts 191°
2026-04-23 09:17 58.60361 -1.67403 396 ft 289 kts 191°
2026-04-23 09:17 58.58395 -1.68217 403 ft 289 kts 192°
2026-04-23 09:17 58.56428 -1.69037 396 ft 289 kts 192°
2026-04-23 09:17 58.54460 -1.69870 395 ft 289 kts 192°
2026-04-23 09:18 58.52517 -1.70702 396 ft 289 kts 192°
2026-04-23 09:18 58.50551 -1.71547 395 ft 289 kts 192°
2026-04-23 09:18 58.48587 -1.72402 398 ft 289 kts 192°
2026-04-23 09:18 58.46630 -1.73266 396 ft 289 kts 192°
2026-04-23 09:19 58.44672 -1.74138 394 ft 288 kts 192°
2026-04-23 09:19 58.42717 -1.75008 395 ft 289 kts 192°
2026-04-23 09:19 58.40762 -1.75886 399 ft 289 kts 193°
2026-04-23 09:19 58.38809 -1.76783 396 ft 288 kts 193°
2026-04-23 09:20 58.36865 -1.77685 394 ft 288 kts 193°
2026-04-23 09:20 58.34922 -1.78597 394 ft 288 kts 193°
2026-04-23 09:20 58.32969 -1.79509 396 ft 288 kts 193°
2026-04-23 09:20 58.31025 -1.80433 398 ft 288 kts 193°
2026-04-23 09:21 58.29083 -1.81366 395 ft 288 kts 193°
2026-04-23 09:21 58.27142 -1.82309 400 ft 288 kts 194°
2026-04-23 09:21 58.25202 -1.83264 397 ft 288 kts 194°
2026-04-23 09:21 58.23261 -1.84224 397 ft 288 kts 194°
2026-04-23 09:22 58.21348 -1.85176 394 ft 288 kts 194°
2026-04-23 09:22 58.19391 -1.86150 398 ft 288 kts 194°
2026-04-23 09:22 58.17452 -1.87121 395 ft 288 kts 194°
2026-04-23 09:22 58.15540 -1.88082 397 ft 288 kts 194°
2026-04-23 09:23 58.13634 -1.89050 400 ft 288 kts 193°
2026-04-23 09:23 58.11662 -1.89982 399 ft 288 kts 192°
2026-04-23 09:23 58.09717 -1.90857 400 ft 287 kts 192°
2026-04-23 09:23 58.07770 -1.91701 395 ft 287 kts 191°
2026-04-23 09:24 58.05819 -1.92481 395 ft 286 kts 190°
2026-04-23 09:24 58.03864 -1.93210 397 ft 286 kts 189°
2026-04-23 09:24 58.01898 -1.93903 395 ft 287 kts 188°
2026-04-23 09:24 57.99937 -1.94554 394 ft 287 kts 188°
2026-04-23 09:25 57.97973 -1.95162 399 ft 286 kts 187°
2026-04-23 09:25 57.95992 -1.95380 389 ft 284 kts 172°
2026-04-23 09:25 57.94079 -1.94470 306 ft 286 kts 155°
2026-04-23 09:25 57.92402 -1.92482 314 ft 284 kts 143°
2026-04-23 09:26 57.90831 -1.90304 496 ft 280 kts 143°
2026-04-23 09:26 57.89299 -1.88098 496 ft 282 kts 141°
2026-04-23 09:26 57.87752 -1.85801 499 ft 283 kts 141°
2026-04-23 09:26 57.86220 -1.83458 501 ft 284 kts 140°
2026-04-23 09:27 57.84697 -1.81063 501 ft 285 kts 139°
2026-04-23 09:27 57.83188 -1.78636 500 ft 285 kts 139°
2026-04-23 09:27 57.81704 -1.76167 499 ft 285 kts 137°
2026-04-23 09:27 57.80249 -1.73655 497 ft 285 kts 137°
2026-04-23 09:28 57.78805 -1.71107 498 ft 285 kts 136°
2026-04-23 09:28 57.77382 -1.68511 498 ft 284 kts 136°
2026-04-23 09:28 57.75868 -1.66151 498 ft 284 kts 145°
2026-04-23 09:28 57.74127 -1.64376 494 ft 285 kts 157°
2026-04-23 09:29 57.72267 -1.63240 497 ft 285 kts 163°
2026-04-23 09:29 57.70358 -1.62188 498 ft 285 kts 163°
2026-04-23 09:29 57.68450 -1.61122 498 ft 286 kts 163°
2026-04-23 09:29 57.66544 -1.60057 498 ft 286 kts 163°
2026-04-23 09:30 57.64632 -1.59000 498 ft 286 kts 163°
2026-04-23 09:30 57.62719 -1.57953 497 ft 286 kts 163°
2026-04-23 09:30 57.60804 -1.56924 499 ft 286 kts 164°
2026-04-23 09:30 57.58860 -1.56125 496 ft 286 kts 171°
2026-04-23 09:31 57.56880 -1.55774 496 ft 286 kts 176°
2026-04-23 09:31 57.54910 -1.55596 496 ft 286 kts 176°
2026-04-23 09:31 57.52923 -1.55371 496 ft 287 kts 175°
2026-04-23 09:31 57.50931 -1.55089 496 ft 287 kts 175°
2026-04-23 09:32 57.48932 -1.54862 496 ft 287 kts 180°
2026-04-23 09:32 57.46952 -1.55307 493 ft 287 kts 192°
2026-04-23 09:32 57.45013 -1.56162 496 ft 286 kts 193°
2026-04-23 09:32 57.43077 -1.56993 498 ft 286 kts 192°
2026-04-23 09:33 57.41123 -1.57771 500 ft 286 kts 191°
2026-04-23 09:33 57.39177 -1.58507 498 ft 286 kts 190°
2026-04-23 09:33 57.37227 -1.59200 500 ft 286 kts 189°
2026-04-23 09:33 57.35267 -1.59850 501 ft 286 kts 189°
2026-04-23 09:34 57.33308 -1.60460 498 ft 286 kts 188°
2026-04-23 09:34 57.31368 -1.61288 496 ft 285 kts 195°
2026-04-23 09:34 57.29461 -1.62300 498 ft 285 kts 194°
2026-04-23 09:34 57.27547 -1.63254 497 ft 285 kts 194°
2026-04-23 09:35 57.25626 -1.64160 493 ft 285 kts 193°
2026-04-23 09:35 57.23705 -1.65023 496 ft 285 kts 192°
2026-04-23 09:35 57.21769 -1.65843 496 ft 285 kts 192°
2026-04-23 09:35 57.19826 -1.66618 496 ft 285 kts 191°
2026-04-23 09:36 57.17882 -1.67352 495 ft 285 kts 191°
2026-04-23 09:36 57.15965 -1.68039 495 ft 285 kts 190°
2026-04-23 09:36 57.14004 -1.68700 495 ft 285 kts 189°
2026-04-23 09:36 57.12050 -1.69313 496 ft 285 kts 188°
2026-04-23 09:37 57.10088 -1.69883 497 ft 285 kts 188°
2026-04-23 09:37 57.08121 -1.70409 500 ft 286 kts 187°
2026-04-23 09:37 57.06154 -1.70891 499 ft 285 kts 186°
2026-04-23 09:37 57.04182 -1.71332 499 ft 285 kts 186°
2026-04-23 09:38 57.02202 -1.71729 502 ft 285 kts 185°
2026-04-23 09:38 57.00227 -1.72082 502 ft 286 kts 185°
2026-04-23 09:38 56.98241 -1.72394 501 ft 286 kts 184°
2026-04-23 09:38 56.96254 -1.72664 505 ft 286 kts 183°
2026-04-23 09:39 56.94266 -1.72887 509 ft 286 kts 182°
2026-04-23 09:39 56.92299 -1.73066 508 ft 286 kts 182°
2026-04-23 09:39 56.90307 -1.73202 511 ft 286 kts 181°
2026-04-23 09:39 56.88316 -1.73294 510 ft 286 kts 180°
2026-04-23 09:40 56.86324 -1.73341 510 ft 287 kts 180°
2026-04-23 09:40 56.84325 -1.73341 510 ft 287 kts 179°
2026-04-23 09:40 56.82327 -1.73295 508 ft 287 kts 178°
2026-04-23 09:40 56.80325 -1.73201 511 ft 287 kts 178°
2026-04-23 09:41 56.78978 -1.73110 510 ft 288 kts 177°
2026-04-23 09:41 56.77005 -1.72939 511 ft 287 kts 176°
2026-04-23 09:41 56.75010 -1.72717 510 ft 287 kts 175°
2026-04-23 09:41 56.73017 -1.72449 510 ft 287 kts 175°
2026-04-23 09:42 56.71023 -1.72129 511 ft 287 kts 174°
2026-04-23 09:42 56.69029 -1.71979 504 ft 287 kts 185°
2026-04-23 09:42 56.67138 -1.73070 497 ft 287 kts 211°
2026-04-23 09:42 56.65836 -1.75766 498 ft 288 kts 243°
2026-04-23 09:43 56.65035 -1.79096 515 ft 287 kts 244°
2026-04-23 09:43 56.64254 -1.82427 521 ft 287 kts 249°
2026-04-23 09:43 56.63714 -1.85935 517 ft 288 kts 256°
2026-04-23 09:43 56.63268 -1.89489 520 ft 288 kts 255°
2026-04-23 09:44 56.62787 -1.92980 522 ft 288 kts 254°
2026-04-23 09:44 56.62170 -1.96436 514 ft 288 kts 243°
2026-04-23 09:44 56.61007 -1.99378 513 ft 287 kts 223°
2026-04-23 09:44 56.59387 -2.01440 513 ft 286 kts 204°
2026-04-23 09:45 56.57484 -2.02396 511 ft 285 kts 185°
2026-04-23 09:45 56.55497 -2.02384 516 ft 286 kts 177°
2026-04-23 09:45 56.53506 -2.02279 521 ft 286 kts 178°
2026-04-23 09:45 56.51505 -2.02159 520 ft 287 kts 177°
2026-04-23 09:46 56.49510 -2.01994 520 ft 287 kts 176°
2026-04-23 09:46 56.47513 -2.01779 518 ft 287 kts 175°
2026-04-23 09:46 56.45525 -2.01513 521 ft 287 kts 174°
2026-04-23 09:46 56.43554 -2.01202 516 ft 287 kts 174°
2026-04-23 09:47 56.41568 -2.00840 519 ft 287 kts 173°
2026-04-23 09:47 56.39580 -2.00423 519 ft 287 kts 172°
2026-04-23 09:47 56.37602 -1.99955 521 ft 286 kts 171°
2026-04-23 09:47 56.35630 -1.99434 518 ft 287 kts 170°
2026-04-23 09:48 56.33656 -1.98863 517 ft 287 kts 169°
2026-04-23 09:48 56.31688 -1.98239 517 ft 287 kts 168°
2026-04-23 09:48 56.29732 -1.97572 514 ft 286 kts 168°
2026-04-23 09:48 56.27798 -1.96857 522 ft 286 kts 167°
2026-04-23 09:49 56.25860 -1.96086 521 ft 286 kts 166°
2026-04-23 09:49 56.23928 -1.95261 522 ft 286 kts 165°
2026-04-23 09:49 56.21996 -1.94392 521 ft 286 kts 165°
2026-04-23 09:49 56.20068 -1.93479 518 ft 286 kts 164°
2026-04-23 09:50 56.18156 -1.92519 524 ft 286 kts 163°
2026-04-23 09:50 56.16242 -1.91508 517 ft 286 kts 162°
2026-04-23 09:50 56.14340 -1.90453 519 ft 286 kts 162°
2026-04-23 09:50 56.12450 -1.89355 516 ft 286 kts 161°
2026-04-23 09:51 56.10565 -1.88209 520 ft 286 kts 160°
2026-04-23 09:51 56.08691 -1.87028 517 ft 285 kts 159°
2026-04-23 09:51 56.06825 -1.85795 523 ft 286 kts 158°
2026-04-23 09:51 56.04970 -1.84521 523 ft 286 kts 158°
2026-04-23 09:52 56.03141 -1.83223 524 ft 286 kts 157°
2026-04-23 09:52 56.01278 -1.81857 521 ft 286 kts 156°
2026-04-23 09:52 55.99469 -1.80481 522 ft 286 kts 155°
2026-04-23 09:52 55.97648 -1.79039 518 ft 286 kts 155°
2026-04-23 09:53 55.95838 -1.77564 521 ft 285 kts 154°
2026-04-23 09:53 55.94050 -1.76053 516 ft 286 kts 153°